sensor_id;sensor_type;location;lat;lon;timestamp;pressure;altitude;pressure_sealevel;temperature;humidity
63343;BME280;49465;57.664;39.686;2022-11-15T00:00:16;100926.41;;;0.87;52.41
63343;BME280;49465;57.664;39.686;2022-11-15T00:02:48;100931.41;;;0.96;52.71
63343;BME280;49465;57.664;39.686;2022-11-15T00:05:22;100932.19;;;1.03;53.01
63343;BME280;49465;57.664;39.686;2022-11-15T00:07:54;100927.25;;;0.86;53.04
63343;BME280;49465;57.664;39.686;2022-11-15T00:10:28;100921.97;;;0.96;53.21
63343;BME280;49465;57.664;39.686;2022-11-15T00:13:09;100925.41;;;0.94;53.79
63343;BME280;49465;57.664;39.686;2022-11-15T00:15:47;100924.38;;;1.07;53.17
63343;BME280;49465;57.664;39.686;2022-11-15T00:18:17;100908.34;;;0.85;53.54
63343;BME280;49465;57.664;39.686;2022-11-15T00:20:44;100917.84;;;0.82;53.80
63343;BME280;49465;57.664;39.686;2022-11-15T00:23:22;100916.91;;;0.89;53.98
63343;BME280;49465;57.664;39.686;2022-11-15T00:25:56;100908.94;;;1.04;53.70
63343;BME280;49465;57.664;39.686;2022-11-15T00:28:26;100904.09;;;0.83;54.12
63343;BME280;49465;57.664;39.686;2022-11-15T00:30:52;100903.22;;;0.82;54.04
63343;BME280;49465;57.664;39.686;2022-11-15T00:33:26;100911.66;;;0.93;53.85
63343;BME280;49465;57.664;39.686;2022-11-15T00:36:00;100905.53;;;1.02;54.48
63343;BME280;49465;57.664;39.686;2022-11-15T00:38:39;100901.09;;;1.09;54.11
63343;BME280;49465;57.664;39.686;2022-11-15T00:41:17;100901.09;;;1.09;54.60
63343;BME280;49465;57.664;39.686;2022-11-15T00:43:46;100895.31;;;0.93;54.88
63343;BME280;49465;57.664;39.686;2022-11-15T00:46:12;100893.72;;;0.84;54.58
63343;BME280;49465;57.664;39.686;2022-11-15T00:48:56;100890.78;;;1.09;54.73
63343;BME280;49465;57.664;39.686;2022-11-15T00:51:32;100895.34;;;0.90;54.43
63343;BME280;49465;57.664;39.686;2022-11-15T00:53:59;100895.34;;;0.90;54.73
63343;BME280;49465;57.664;39.686;2022-11-15T00:56:30;100897.81;;;0.97;55.00
63343;BME280;49465;57.664;39.686;2022-11-15T00:59:02;100902.13;;;1.00;55.17
63343;BME280;49465;57.664;39.686;2022-11-15T01:01:28;100900.56;;;0.88;55.31
63343;BME280;49465;57.664;39.686;2022-11-15T01:04:03;100899.44;;;1.06;55.65
63343;BME280;49465;57.664;39.686;2022-11-15T01:06:32;100899.53;;;1.00;55.29
63343;BME280;49465;57.664;39.686;2022-11-15T01:09:06;100897.78;;;1.02;55.38
63343;BME280;49465;57.664;39.686;2022-11-15T01:11:35;100901.06;;;1.65;52.75
63343;BME280;49465;57.664;39.686;2022-11-15T01:14:09;100891.56;;;1.14;54.54
63343;BME280;49465;57.664;39.686;2022-11-15T01:16:41;100895.09;;;1.07;54.87
63343;BME280;49465;57.664;39.686;2022-11-15T01:19:16;100891.69;;;1.06;54.84
63343;BME280;49465;57.664;39.686;2022-11-15T01:21:51;100890.06;;;0.97;54.73
63343;BME280;49465;57.664;39.686;2022-11-15T01:24:24;100884.75;;;1.08;55.08
63343;BME280;49465;57.664;39.686;2022-11-15T01:26:55;100886.47;;;1.08;55.06
63343;BME280;49465;57.664;39.686;2022-11-15T01:29:28;100889.16;;;1.02;54.66
63343;BME280;49465;57.664;39.686;2022-11-15T01:32:00;100885.50;;;1.16;54.86
63343;BME280;49465;57.664;39.686;2022-11-15T01:34:34;100882.91;;;1.15;54.88
63343;BME280;49465;57.664;39.686;2022-11-15T01:37:09;100874.25;;;1.19;54.47
63343;BME280;49465;57.664;39.686;2022-11-15T01:39:43;100875.91;;;1.23;54.45
63343;BME280;49465;57.664;39.686;2022-11-15T01:42:21;100878.28;;;1.35;54.38
63343;BME280;49465;57.664;39.686;2022-11-15T01:44:51;100878.53;;;1.22;54.32
63343;BME280;49465;57.664;39.686;2022-11-15T01:47:30;100879.25;;;1.30;54.14
63343;BME280;49465;57.664;39.686;2022-11-15T01:50:15;100873.06;;;1.37;53.75
63343;BME280;49465;57.664;39.686;2022-11-15T01:52:49;100868.19;;;1.22;53.72
63343;BME280;49465;57.664;39.686;2022-11-15T01:55:26;100870.59;;;1.32;53.59
63343;BME280;49465;57.664;39.686;2022-11-15T01:58:01;100864.81;;;1.18;53.99
63343;BME280;49465;57.664;39.686;2022-11-15T02:00:39;100866.47;;;1.22;53.62
63343;BME280;49465;57.664;39.686;2022-11-15T02:03:11;100870.59;;;1.31;53.65
63343;BME280;49465;57.664;39.686;2022-11-15T02:05:46;100869.84;;;1.26;53.74
63343;BME280;49465;57.664;39.686;2022-11-15T02:08:16;100868.91;;;1.30;53.50
63343;BME280;49465;57.664;39.686;2022-11-15T02:10:51;100861.28;;;1.22;53.36
63343;BME280;49465;57.664;39.686;2022-11-15T02:13:22;100864.69;;;1.26;53.52
63343;BME280;49465;57.664;39.686;2022-11-15T02:18:46;100863.63;;;1.37;53.13
63343;BME280;49465;57.664;39.686;2022-11-15T02:36:10;100845.81;;;1.19;52.78
63343;BME280;49465;57.664;39.686;2022-11-15T02:41:40;100845.56;;;1.34;52.63
63343;BME280;49465;57.664;39.686;2022-11-15T02:44:22;100844.53;;;1.45;52.39
63343;BME280;49465;57.664;39.686;2022-11-15T02:47:01;100845.41;;;1.44;52.48
63343;BME280;49465;57.664;39.686;2022-11-15T02:49:53;100842.91;;;1.39;52.25
63343;BME280;49465;57.664;39.686;2022-11-15T02:52:27;100844.72;;;1.34;52.10
63343;BME280;49465;57.664;39.686;2022-11-15T02:55:04;100838.53;;;1.43;52.32
63343;BME280;49465;57.664;39.686;2022-11-15T03:00:23;100843.78;;;1.40;52.29
63343;BME280;49465;57.664;39.686;2022-11-15T03:03:20;100842.84;;;1.44;51.93
63343;BME280;49465;57.664;39.686;2022-11-15T03:06:20;100840.81;;;1.60;51.87
63343;BME280;49465;57.664;39.686;2022-11-15T03:09:11;100836.59;;;1.54;51.63
63343;BME280;49465;57.664;39.686;2022-11-15T03:11:50;100833.38;;;1.41;51.79
63343;BME280;49465;57.664;39.686;2022-11-15T03:14:34;100834.00;;;1.55;51.67
63343;BME280;49465;57.664;39.686;2022-11-15T03:17:38;100846.69;;;1.68;51.77
63343;BME280;49465;57.664;39.686;2022-11-15T03:20:13;100836.78;;;1.45;51.82
63343;BME280;49465;57.664;39.686;2022-11-15T03:22:49;100842.91;;;1.39;51.50
63343;BME280;49465;57.664;39.686;2022-11-15T03:25:26;100845.31;;;1.50;51.47
63343;BME280;49465;57.664;39.686;2022-11-15T03:28:03;100843.69;;;1.44;51.45
63343;BME280;49465;57.664;39.686;2022-11-15T03:30:37;100836.81;;;1.43;51.41
63343;BME280;49465;57.664;39.686;2022-11-15T03:33:11;100831.81;;;1.32;51.08
63343;BME280;49465;57.664;39.686;2022-11-15T03:35:47;100834.50;;;1.28;51.19
63343;BME280;49465;57.664;39.686;2022-11-15T03:38:27;100838.03;;;1.24;50.85
63343;BME280;49465;57.664;39.686;2022-11-15T03:41:05;100833.47;;;1.36;50.91
63343;BME280;49465;57.664;39.686;2022-11-15T03:43:57;100836.59;;;1.55;50.85
63343;BME280;49465;57.664;39.686;2022-11-15T03:46:44;100835.25;;;1.33;51.15
63343;BME280;49465;57.664;39.686;2022-11-15T03:49:27;100836.22;;;1.27;50.95
63343;BME280;49465;57.664;39.686;2022-11-15T03:52:02;100835.19;;;1.37;51.04
63343;BME280;49465;57.664;39.686;2022-11-15T03:54:35;100833.91;;;1.12;50.82
63343;BME280;49465;57.664;39.686;2022-11-15T03:57:07;100840.50;;;1.30;50.55
63343;BME280;49465;57.664;39.686;2022-11-15T03:59:42;100839.59;;;1.31;50.85
63343;BME280;49465;57.664;39.686;2022-11-15T04:02:13;100843.13;;;1.27;50.78
63343;BME280;49465;57.664;39.686;2022-11-15T04:04:51;100849.09;;;1.30;50.49
63343;BME280;49465;57.664;39.686;2022-11-15T04:07:28;100843.78;;;1.40;50.78
63343;BME280;49465;57.664;39.686;2022-11-15T04:09:58;100838.03;;;1.22;50.29
63343;BME280;49465;57.664;39.686;2022-11-15T04:12:41;100837.84;;;1.33;50.38
63343;BME280;49465;57.664;39.686;2022-11-15T04:15:21;100839.44;;;1.40;50.53
63343;BME280;49465;57.664;39.686;2022-11-15T04:17:55;100844.75;;;1.31;50.28
63343;BME280;49465;57.664;39.686;2022-11-15T04:20:31;100845.81;;;1.19;50.41
63343;BME280;49465;57.664;39.686;2022-11-15T04:23:19;100839.78;;;1.20;50.06
63343;BME280;49465;57.664;39.686;2022-11-15T04:26:12;100836.16;;;1.30;50.33
63343;BME280;49465;57.664;39.686;2022-11-15T04:28:43;100831.97;;;1.25;50.58
63343;BME280;49465;57.664;39.686;2022-11-15T04:31:31;100831.09;;;1.26;50.31
63343;BME280;49465;57.664;39.686;2022-11-15T04:34:05;100844.00;;;1.26;50.17
63343;BME280;49465;57.664;39.686;2022-11-15T04:36:43;100835.44;;;1.24;50.37
63343;BME280;49465;57.664;39.686;2022-11-15T04:39:40;100837.94;;;1.27;50.52
63343;BME280;49465;57.664;39.686;2022-11-15T04:42:13;100837.94;;;1.27;49.98
63343;BME280;49465;57.664;39.686;2022-11-15T04:44:48;100827.63;;;1.27;50.23
63343;BME280;49465;57.664;39.686;2022-11-15T04:47:19;100830.28;;;1.24;50.22
63343;BME280;49465;57.664;39.686;2022-11-15T04:49:51;100822.34;;;1.80;49.99
63343;BME280;49465;57.664;39.686;2022-11-15T04:52:28;100832.47;;;1.45;50.37
63343;BME280;49465;57.664;39.686;2022-11-15T04:54:57;100817.28;;;1.27;49.95
63343;BME280;49465;57.664;39.686;2022-11-15T04:57:27;100823.41;;;1.19;50.34
63343;BME280;49465;57.664;39.686;2022-11-15T04:59:56;100806.34;;;1.12;50.14
63343;BME280;49465;57.664;39.686;2022-11-15T05:02:31;100803.31;;;1.37;50.53
63343;BME280;49465;57.664;39.686;2022-11-15T05:05:18;100807.16;;;1.14;50.51
63343;BME280;49465;57.664;39.686;2022-11-15T05:07:47;100802.84;;;1.15;50.20
63343;BME280;49465;57.664;39.686;2022-11-15T05:10:19;100802.59;;;1.30;50.51
63343;BME280;49465;57.664;39.686;2022-11-15T05:12:52;100797.63;;;1.18;50.57
63343;BME280;49465;57.664;39.686;2022-11-15T05:15:24;100805.31;;;1.23;50.26
63343;BME280;49465;57.664;39.686;2022-11-15T05:18:03;100803.50;;;1.28;50.30
63343;BME280;49465;57.664;39.686;2022-11-15T05:20:37;100796.00;;;1.14;50.61
63343;BME280;49465;57.664;39.686;2022-11-15T05:23:07;100798.38;;;1.25;50.75
63343;BME280;49465;57.664;39.686;2022-11-15T05:25:39;100790.81;;;1.14;50.13
63343;BME280;49465;57.664;39.686;2022-11-15T05:28:08;100789.06;;;1.16;50.16
63343;BME280;49465;57.664;39.686;2022-11-15T05:30:40;100794.03;;;1.27;50.17
63343;BME280;49465;57.664;39.686;2022-11-15T05:33:10;100790.63;;;1.25;50.11
63343;BME280;49465;57.664;39.686;2022-11-15T05:35:44;100794.81;;;1.30;49.91
63343;BME280;49465;57.664;39.686;2022-11-15T05:38:16;100800.84;;;1.29;50.02
63343;BME280;49465;57.664;39.686;2022-11-15T05:40:50;100802.53;;;1.33;50.33
63343;BME280;49465;57.664;39.686;2022-11-15T05:43:33;100804.03;;;1.45;50.28
63343;BME280;49465;57.664;39.686;2022-11-15T05:46:13;100798.06;;;1.42;50.22
63343;BME280;49465;57.664;39.686;2022-11-15T05:48:50;100800.84;;;1.29;50.28
63343;BME280;49465;57.664;39.686;2022-11-15T05:51:21;100802.63;;;1.27;50.05
63343;BME280;49465;57.664;39.686;2022-11-15T05:53:59;100793.16;;;1.28;49.88
63343;BME280;49465;57.664;39.686;2022-11-15T05:56:34;100799.97;;;1.32;50.10
63343;BME280;49465;57.664;39.686;2022-11-15T05:59:07;100805.91;;;1.37;49.89
63343;BME280;49465;57.664;39.686;2022-11-15T06:01:42;100801.63;;;1.36;49.90
63343;BME280;49465;57.664;39.686;2022-11-15T06:04:14;100794.69;;;1.38;49.91
63343;BME280;49465;57.664;39.686;2022-11-15T06:06:52;100801.28;;;1.54;49.88
63343;BME280;49465;57.664;39.686;2022-11-15T06:09:24;100797.28;;;1.36;49.76
63343;BME280;49465;57.664;39.686;2022-11-15T06:11:56;100793.78;;;1.39;49.96
63343;BME280;49465;57.664;39.686;2022-11-15T06:14:28;100782.59;;;1.40;50.36
63343;BME280;49465;57.664;39.686;2022-11-15T06:17:03;100782.56;;;1.42;50.43
63343;BME280;49465;57.664;39.686;2022-11-15T06:19:35;100775.88;;;1.31;50.09
63343;BME280;49465;57.664;39.686;2022-11-15T06:22:07;100780.84;;;1.42;49.94
63343;BME280;49465;57.664;39.686;2022-11-15T06:24:40;100779.09;;;1.43;49.80
63343;BME280;49465;57.664;39.686;2022-11-15T06:27:12;100770.28;;;1.96;49.53
63343;BME280;49465;57.664;39.686;2022-11-15T06:29:49;100775.53;;;1.48;49.71
63343;BME280;49465;57.664;39.686;2022-11-15T06:32:26;100771.13;;;1.55;50.05
63343;BME280;49465;57.664;39.686;2022-11-15T06:35:02;100771.19;;;1.50;49.65
63343;BME280;49465;57.664;39.686;2022-11-15T06:37:36;100770.38;;;1.48;49.86
63343;BME280;49465;57.664;39.686;2022-11-15T06:40:12;100777.94;;;1.59;49.67
63343;BME280;49465;57.664;39.686;2022-11-15T06:42:44;100774.69;;;1.49;49.89
63343;BME280;49465;57.664;39.686;2022-11-15T06:45:15;100776.00;;;2.11;49.29
63343;BME280;49465;57.664;39.686;2022-11-15T06:47:55;100788.03;;;1.71;49.17
63343;BME280;49465;57.664;39.686;2022-11-15T06:50:36;100787.41;;;1.58;49.36
63343;BME280;49465;57.664;39.686;2022-11-15T06:53:13;100781.38;;;1.58;49.61
63343;BME280;49465;57.664;39.686;2022-11-15T06:55:48;100774.31;;;1.66;49.75
63343;BME280;49465;57.664;39.686;2022-11-15T06:58:22;100775.63;;;1.45;49.88
63343;BME280;49465;57.664;39.686;2022-11-15T07:00:53;100784.91;;;1.54;49.86
63343;BME280;49465;57.664;39.686;2022-11-15T07:03:25;100788.38;;;1.53;50.13
63343;BME280;49465;57.664;39.686;2022-11-15T07:05:57;100779.69;;;1.57;50.00
63343;BME280;49465;57.664;39.686;2022-11-15T07:08:27;100778.94;;;1.50;49.99
63343;BME280;49465;57.664;39.686;2022-11-15T07:11:02;100777.00;;;1.63;49.81
63343;BME280;49465;57.664;39.686;2022-11-15T07:13:36;100782.19;;;1.62;49.79
63343;BME280;49465;57.664;39.686;2022-11-15T07:16:09;100788.91;;;1.70;49.84
63343;BME280;49465;57.664;39.686;2022-11-15T07:18:39;100782.13;;;1.65;49.76
63343;BME280;49465;57.664;39.686;2022-11-15T07:21:13;100783.03;;;1.62;49.83
63343;BME280;49465;57.664;39.686;2022-11-15T07:23:48;100773.66;;;1.56;50.27
63343;BME280;49465;57.664;39.686;2022-11-15T07:26:15;100765.03;;;1.57;49.91
63343;BME280;49465;57.664;39.686;2022-11-15T07:28:51;100767.22;;;1.77;49.75
63343;BME280;49465;57.664;39.686;2022-11-15T07:31:23;100765.56;;;1.73;50.06
63343;BME280;49465;57.664;39.686;2022-11-15T07:33:59;100765.56;;;1.75;50.07
63343;BME280;49465;57.664;39.686;2022-11-15T07:36:35;100771.25;;;1.91;50.05
63343;BME280;49465;57.664;39.686;2022-11-15T07:39:13;100769.66;;;1.85;50.18
63343;BME280;49465;57.664;39.686;2022-11-15T07:41:48;100770.34;;;1.93;49.61
63343;BME280;49465;57.664;39.686;2022-11-15T07:44:23;100777.13;;;1.99;49.95
63343;BME280;49465;57.664;39.686;2022-11-15T07:46:55;100780.63;;;1.96;50.02
63343;BME280;49465;57.664;39.686;2022-11-15T07:49:30;100779.50;;;2.10;49.82
63343;BME280;49465;57.664;39.686;2022-11-15T07:52:04;100780.41;;;2.06;49.45
63343;BME280;49465;57.664;39.686;2022-11-15T07:54:38;100774.31;;;2.10;49.75
63343;BME280;49465;57.664;39.686;2022-11-15T07:57:15;100777.63;;;2.15;49.60
63343;BME280;49465;57.664;39.686;2022-11-15T07:59:51;100776.69;;;2.19;49.14
63343;BME280;49465;57.664;39.686;2022-11-15T08:02:23;100770.53;;;2.23;49.32
63343;BME280;49465;57.664;39.686;2022-11-15T08:04:57;100774.78;;;2.27;49.35
63343;BME280;49465;57.664;39.686;2022-11-15T08:07:32;100773.00;;;2.29;49.25
63343;BME280;49465;57.664;39.686;2022-11-15T08:10:01;100763.13;;;2.83;49.38
63343;BME280;49465;57.664;39.686;2022-11-15T08:12:32;100768.47;;;2.39;49.60
63343;BME280;49465;57.664;39.686;2022-11-15T08:15:04;100764.31;;;2.33;49.43
63343;BME280;49465;57.664;39.686;2022-11-15T08:17:39;100761.47;;;2.43;49.73
63343;BME280;49465;57.664;39.686;2022-11-15T08:20:11;100761.72;;;2.33;49.29
63343;BME280;49465;57.664;39.686;2022-11-15T08:22:43;100764.19;;;2.38;49.21
63343;BME280;49465;57.664;39.686;2022-11-15T08:25:15;100764.13;;;2.41;48.95
63343;BME280;49465;57.664;39.686;2022-11-15T08:27:46;100771.84;;;2.43;49.29
63343;BME280;49465;57.664;39.686;2022-11-15T08:30:20;100776.06;;;2.47;49.21
63343;BME280;49465;57.664;39.686;2022-11-15T08:32:52;100775.19;;;2.48;48.75
63343;BME280;49465;57.664;39.686;2022-11-15T08:35:21;100775.31;;;2.42;48.99
63343;BME280;49465;57.664;39.686;2022-11-15T08:37:51;100764.94;;;2.43;48.99
63343;BME280;49465;57.664;39.686;2022-11-15T08:40:21;100769.00;;;2.55;49.26
63343;BME280;49465;57.664;39.686;2022-11-15T08:42:57;100774.03;;;2.60;49.10
63343;BME280;49465;57.664;39.686;2022-11-15T08:45:33;100766.13;;;2.66;48.56
63343;BME280;49465;57.664;39.686;2022-11-15T08:48:06;100757.56;;;2.62;48.96
63343;BME280;49465;57.664;39.686;2022-11-15T08:50:43;100757.47;;;2.67;48.91
63343;BME280;49465;57.664;39.686;2022-11-15T08:53:15;100758.19;;;2.73;49.33
63343;BME280;49465;57.664;39.686;2022-11-15T08:55:41;100752.63;;;2.53;49.10
63343;BME280;49465;57.664;39.686;2022-11-15T08:58:15;100751.41;;;2.68;48.93
63343;BME280;49465;57.664;39.686;2022-11-15T09:00:44;100745.00;;;3.15;49.57
63343;BME280;49465;57.664;39.686;2022-11-15T09:03:13;100747.16;;;2.65;49.13
63343;BME280;49465;57.664;39.686;2022-11-15T09:05:43;100748.94;;;2.63;48.83
63343;BME280;49465;57.664;39.686;2022-11-15T09:08:21;100753.75;;;2.79;49.08
63343;BME280;49465;57.664;39.686;2022-11-15T09:10:53;100743.72;;;2.65;49.52
63343;BME280;49465;57.664;39.686;2022-11-15T09:13:22;100740.84;;;2.75;48.55
63343;BME280;49465;57.664;39.686;2022-11-15T09:15:57;100741.88;;;2.68;49.16
63343;BME280;49465;57.664;39.686;2022-11-15T09:18:26;100736.44;;;2.81;48.88
63343;BME280;49465;57.664;39.686;2022-11-15T09:21:04;100738.66;;;2.94;48.67
63343;BME280;49465;57.664;39.686;2022-11-15T09:23:36;100741.59;;;2.81;49.13
63343;BME280;49465;57.664;39.686;2022-11-15T09:26:10;100737.88;;;2.91;48.53
63343;BME280;49465;57.664;39.686;2022-11-15T09:28:41;100734.31;;;2.95;48.49
63343;BME280;49465;57.664;39.686;2022-11-15T09:31:16;100731.72;;;2.95;48.56
63343;BME280;49465;57.664;39.686;2022-11-15T09:33:53;100728.66;;;3.13;47.74
63343;BME280;49465;57.664;39.686;2022-11-15T09:36:25;100732.22;;;3.09;47.48
63343;BME280;49465;57.664;39.686;2022-11-15T09:38:56;100727.28;;;3.00;48.35
63343;BME280;49465;57.664;39.686;2022-11-15T09:41:43;100722.16;;;3.31;47.47
63343;BME280;49465;57.664;39.686;2022-11-15T09:44:46;100722.69;;;3.43;47.45
63343;BME280;49465;57.664;39.686;2022-11-15T09:47:33;100720.34;;;3.33;47.11
63343;BME280;49465;57.664;39.686;2022-11-15T09:50:39;100718.88;;;3.54;48.15
63343;BME280;49465;57.664;39.686;2022-11-15T09:56:22;100713.22;;;3.42;47.88
63343;BME280;49465;57.664;39.686;2022-11-15T10:02:12;100703.63;;;3.45;48.07
63343;BME280;49465;57.664;39.686;2022-11-15T10:04:45;100704.59;;;3.41;46.67
63343;BME280;49465;57.664;39.686;2022-11-15T10:07:37;100703.91;;;3.64;47.57
63343;BME280;49465;57.664;39.686;2022-11-15T10:10:31;100696.09;;;3.66;47.11
63343;BME280;49465;57.664;39.686;2022-11-15T10:13:06;100698.72;;;3.34;47.97
63343;BME280;49465;57.664;39.686;2022-11-15T10:15:47;100703.44;;;3.51;47.55
63343;BME280;49465;57.664;39.686;2022-11-15T10:18:36;100698.47;;;3.73;47.37
63343;BME280;49465;57.664;39.686;2022-11-15T10:21:32;100694.34;;;3.66;47.18
63343;BME280;49465;57.664;39.686;2022-11-15T10:24:15;100691.91;;;3.62;46.75
63343;BME280;49465;57.664;39.686;2022-11-15T10:26:56;100687.66;;;3.59;46.83
63343;BME280;49465;57.664;39.686;2022-11-15T10:29:31;100686.78;;;3.59;46.23
63343;BME280;49465;57.664;39.686;2022-11-15T10:32:09;100683.31;;;3.60;46.15
63343;BME280;49465;57.664;39.686;2022-11-15T10:34:43;100685.00;;;3.61;45.58
63343;BME280;49465;57.664;39.686;2022-11-15T10:37:29;100677.56;;;3.78;46.53
63343;BME280;49465;57.664;39.686;2022-11-15T10:40:17;100682.94;;;3.72;46.86
63343;BME280;49465;57.664;39.686;2022-11-15T10:43:14;100689.56;;;3.82;46.41
63343;BME280;49465;57.664;39.686;2022-11-15T10:45:50;100688.47;;;3.61;46.32
63343;BME280;49465;57.664;39.686;2022-11-15T10:48:28;100686.78;;;3.59;46.02
63343;BME280;49465;57.664;39.686;2022-11-15T10:51:02;100688.66;;;3.55;46.13
63343;BME280;49465;57.664;39.686;2022-11-15T10:54:03;100683.31;;;3.60;46.82
63343;BME280;49465;57.664;39.686;2022-11-15T10:56:41;100691.16;;;3.56;46.54
63343;BME280;49465;57.664;39.686;2022-11-15T10:59:32;100683.66;;;3.77;46.49
63343;BME280;49465;57.664;39.686;2022-11-15T11:02:34;100683.41;;;3.86;47.37
63343;BME280;49465;57.664;39.686;2022-11-15T11:08:25;100672.03;;;3.90;45.34
63343;BME280;49465;57.664;39.686;2022-11-15T11:11:13;100667.16;;;3.80;46.02
63343;BME280;49465;57.664;39.686;2022-11-15T11:13:59;100665.69;;;3.71;46.65
63343;BME280;49465;57.664;39.686;2022-11-15T11:17:06;100671.22;;;3.88;46.81
63343;BME280;49465;57.664;39.686;2022-11-15T11:23:42;100668.63;;;3.88;45.98
63343;BME280;49465;57.664;39.686;2022-11-15T11:29:39;100664.31;;;3.87;46.64
63343;BME280;49465;57.664;39.686;2022-11-15T11:44:08;100649.09;;;3.76;46.21
63343;BME280;49465;57.664;39.686;2022-11-15T11:47:12;100646.22;;;3.86;46.43
63343;BME280;49465;57.664;39.686;2022-11-15T11:50:25;100641.78;;;3.89;47.11
63343;BME280;49465;57.664;39.686;2022-11-15T11:56:03;100639.72;;;3.72;46.15
63343;BME280;49465;57.664;39.686;2022-11-15T11:58:48;100644.59;;;3.53;46.31
63343;BME280;49465;57.664;39.686;2022-11-15T12:01:24;100640.41;;;3.49;46.62
63343;BME280;49465;57.664;39.686;2022-11-15T12:04:07;100638.84;;;3.44;46.66
63343;BME280;49465;57.664;39.686;2022-11-15T12:06:54;100638.00;;;3.43;46.68
63343;BME280;49465;57.664;39.686;2022-11-15T12:09:46;100633.44;;;3.51;47.28
63343;BME280;49465;57.664;39.686;2022-11-15T12:12:24;100633.16;;;3.31;47.35
63343;BME280;49465;57.664;39.686;2022-11-15T12:15:14;100625.66;;;3.51;47.59
63343;BME280;49465;57.664;39.686;2022-11-15T12:17:49;100633.94;;;3.33;47.14
63343;BME280;49465;57.664;39.686;2022-11-15T12:20:28;100636.38;;;3.39;48.23
63343;BME280;49465;57.664;39.686;2022-11-15T12:23:19;100627.16;;;3.59;48.01
63343;BME280;49465;57.664;39.686;2022-11-15T12:32:00;100621.78;;;3.35;48.33
63343;BME280;49465;57.664;39.686;2022-11-15T12:34:40;100624.47;;;3.02;48.39
63343;BME280;49465;57.664;39.686;2022-11-15T12:40:29;100624.38;;;3.35;48.28
63343;BME280;49465;57.664;39.686;2022-11-15T12:45:55;100624.84;;;3.20;47.71
63343;BME280;49465;57.664;39.686;2022-11-15T12:54:52;100611.34;;;3.38;48.25
63343;BME280;49465;57.664;39.686;2022-11-15T12:57:29;100615.69;;;3.08;47.97
63343;BME280;49465;57.664;39.686;2022-11-15T13:02:55;100611.59;;;2.99;48.50
63343;BME280;49465;57.664;39.686;2022-11-15T13:05:51;100604.25;;;2.84;49.28
63343;BME280;49465;57.664;39.686;2022-11-15T13:08:43;100603.03;;;2.97;48.82
63343;BME280;49465;57.664;39.686;2022-11-15T13:11:46;100604.84;;;2.93;48.59
63343;BME280;49465;57.664;39.686;2022-11-15T13:14:41;100608.38;;;2.91;49.47
63343;BME280;49465;57.664;39.686;2022-11-15T13:17:35;100596.38;;;2.88;49.01
63343;BME280;49465;57.664;39.686;2022-11-15T13:20:34;100592.91;;;2.88;49.41
63343;BME280;49465;57.664;39.686;2022-11-15T13:23:13;100595.34;;;2.63;49.25
63343;BME280;49465;57.664;39.686;2022-11-15T13:25:53;100596.97;;;2.32;49.31
63343;BME280;49465;57.664;39.686;2022-11-15T13:28:54;100593.88;;;2.51;49.04
63343;BME280;49465;57.664;39.686;2022-11-15T13:31:42;100587.22;;;2.42;49.32
63343;BME280;49465;57.664;39.686;2022-11-15T13:34:33;100592.78;;;2.61;49.28
63343;BME280;49465;57.664;39.686;2022-11-15T13:37:49;100582.41;;;2.28;49.42
63343;BME280;49465;57.664;39.686;2022-11-15T13:39:57;100585.97;;;2.24;49.30
63343;BME280;49465;57.664;39.686;2022-11-15T13:42:50;100580.94;;;2.18;50.98
63343;BME280;49465;57.664;39.686;2022-11-15T13:45:27;100580.06;;;2.17;50.38
63343;BME280;49465;57.664;39.686;2022-11-15T13:48:07;100579.84;;;2.27;49.51
63343;BME280;49465;57.664;39.686;2022-11-15T13:50:44;100587.47;;;1.98;49.99
63343;BME280;49465;57.664;39.686;2022-11-15T13:53:24;100577.91;;;2.02;50.53
63343;BME280;49465;57.664;39.686;2022-11-15T13:55:56;100582.09;;;2.06;50.09
63343;BME280;49465;57.664;39.686;2022-11-15T13:58:27;100580.56;;;1.97;50.54
63343;BME280;49465;57.664;39.686;2022-11-15T14:01:13;100577.63;;;2.13;51.15
63343;BME280;49465;57.664;39.686;2022-11-15T14:03:53;100578.72;;;2.04;51.33
63343;BME280;49465;57.664;39.686;2022-11-15T14:06:24;100583.66;;;1.76;50.90
63343;BME280;49465;57.664;39.686;2022-11-15T14:12:01;100573.41;;;2.09;51.06
63343;BME280;49465;57.664;39.686;2022-11-15T14:14:34;100582.81;;;1.75;51.78
63343;BME280;49465;57.664;39.686;2022-11-15T14:20:18;100575.19;;;1.71;51.90
63343;BME280;49465;57.664;39.686;2022-11-15T14:29:28;100572.97;;;1.91;51.84
63343;BME280;49465;57.664;39.686;2022-11-15T14:34:56;100576.19;;;1.65;52.49
63343;BME280;49465;57.664;39.686;2022-11-15T14:37:36;100580.41;;;1.68;53.23
63343;BME280;49465;57.664;39.686;2022-11-15T14:40:15;100580.88;;;1.48;53.44
63343;BME280;49465;57.664;39.686;2022-11-15T14:42:49;100579.06;;;1.51;53.25
63343;BME280;49465;57.664;39.686;2022-11-15T14:45:29;100576.00;;;1.34;53.22
63343;BME280;49465;57.664;39.686;2022-11-15T14:48:09;100578.28;;;1.48;53.32
63343;BME280;49465;57.664;39.686;2022-11-15T14:50:38;100573.34;;;1.37;53.23
63343;BME280;49465;57.664;39.686;2022-11-15T14:53:17;100568.88;;;1.45;53.01
63343;BME280;49465;57.664;39.686;2022-11-15T14:55:53;100566.38;;;1.41;52.51
63343;BME280;49465;57.664;39.686;2022-11-15T14:58:27;100575.06;;;1.38;52.50
63343;BME280;49465;57.664;39.686;2022-11-15T15:00:59;100572.69;;;1.27;53.39
63343;BME280;49465;57.664;39.686;2022-11-15T15:03:38;100569.91;;;1.36;52.96
63343;BME280;49465;57.664;39.686;2022-11-15T15:06:21;100564.84;;;1.33;52.82
63343;BME280;49465;57.664;39.686;2022-11-15T15:08:56;100565.03;;;1.24;53.19
63343;BME280;49465;57.664;39.686;2022-11-15T15:11:31;100562.53;;;1.19;54.00
63343;BME280;49465;57.664;39.686;2022-11-15T15:14:03;100552.41;;;1.10;54.13